createdAt,value
2017-08-06T09:35:05.414Z,18.5
2017-08-06T09:40:08.307Z,18.5
2017-08-06T09:45:05.068Z,18.5
2017-08-06T09:50:08.176Z,18.6
2017-08-06T09:55:13.635Z,18.8
2017-08-06T10:00:02.920Z,18.8
2017-08-06T10:05:05.723Z,19.1
2017-08-06T10:10:08.519Z,19.1
2017-08-06T10:15:02.820Z,19.1
2017-08-06T10:20:05.621Z,19.2
2017-08-06T10:25:07.792Z,19.2
2017-08-06T10:30:07.942Z,19.4
2017-08-06T10:35:03.164Z,19.5
2017-08-06T10:40:15.386Z,19.7
2017-08-06T10:45:05.246Z,19.8
2017-08-06T10:50:18.536Z,19.9
2017-08-06T10:55:02.796Z,19.9
2017-08-06T11:00:18.190Z,19.7
2017-08-06T11:05:03.480Z,19.7
2017-08-06T11:10:03.330Z,19.8
2017-08-06T11:15:13.317Z,19.9
2017-08-06T11:20:05.923Z,20
2017-08-06T11:25:05.872Z,20.3
2017-08-06T11:30:10.719Z,20.5
2017-08-06T11:35:02.974Z,20.5
2017-08-06T11:40:02.598Z,20.6
2017-08-06T11:45:02.838Z,20.5
2017-08-06T11:50:05.536Z,20.3
2017-08-06T11:55:02.804Z,20.3
2017-08-06T12:00:03.250Z,20.5
2017-08-06T12:05:05.947Z,20.8
2017-08-06T12:10:20.525Z,21
2017-08-06T12:15:02.741Z,21
2017-08-06T12:20:08.107Z,21.4
2017-08-06T12:25:08.345Z,21.4
2017-08-06T12:30:07.765Z,21.2
2017-08-06T12:35:08.106Z,21
2017-08-06T12:40:30.670Z,21.4
2017-08-06T12:45:08.075Z,21.2
2017-08-06T12:50:03.279Z,21.2
2017-08-06T12:55:06.197Z,21.7
2017-08-06T13:00:08.284Z,21.8
2017-08-06T13:05:02.992Z,21.8
2017-08-06T13:10:15.521Z,22.4
2017-08-06T13:15:05.352Z,22.7
2017-08-06T13:20:03.505Z,22.7
2017-08-06T13:25:07.842Z,23.1
2017-08-06T13:30:10.742Z,23
2017-08-06T13:35:07.872Z,23.1
2017-08-06T13:40:08.462Z,24.2
2017-08-06T13:45:05.302Z,26
2017-08-06T13:50:05.869Z,26
2017-08-06T13:55:05.802Z,26.4
2017-08-06T14:00:03.073Z,26.4
2017-08-06T14:05:03.210Z,25.9
2017-08-06T14:10:08.161Z,25.5
2017-08-06T14:15:03.336Z,25.5
2017-08-06T14:20:10.888Z,26.6
2017-08-06T14:25:02.808Z,26.6
2017-08-06T14:30:07.756Z,25.6
2017-08-06T14:35:12.770Z,25.1
2017-08-06T14:40:03.109Z,25.1
2017-08-06T14:45:05.568Z,25.2
2017-08-06T14:50:07.840Z,25.3
2017-08-06T14:55:03.031Z,25.3
2017-08-06T15:05:05.576Z,26.3
2017-08-06T15:10:02.745Z,26.3
2017-08-06T15:15:08.102Z,26
2017-08-06T15:20:05.780Z,26.8
2017-08-06T15:30:05.854Z,24.8
2017-08-06T15:35:13.163Z,24.4
2017-08-06T15:40:02.959Z,24.4
2017-08-06T15:45:05.659Z,23.9
2017-08-06T15:50:03.382Z,23.9
2017-08-06T15:55:03.469Z,23.9
2017-08-06T16:00:10.571Z,23.8
2017-08-06T16:05:02.823Z,23.8
2017-08-06T16:10:06.133Z,23.4
2017-08-06T16:15:16.206Z,23.7
2017-08-06T16:20:08.297Z,24
2017-08-06T16:25:03.271Z,24
2017-08-06T16:30:06.070Z,24.3
2017-08-06T16:35:05.699Z,24.1
2017-08-06T16:40:13.614Z,23.6
2017-08-06T16:45:02.804Z,23.6
2017-08-06T16:50:05.596Z,23.2
2017-08-06T16:55:18.123Z,22.9
2017-08-06T17:00:03.108Z,22.9
2017-08-06T17:05:05.802Z,23.2
2017-08-06T17:10:05.121Z,23.4
2017-08-06T17:15:03.313Z,23.4
2017-08-06T17:20:02.632Z,23.5
2017-08-06T17:25:02.873Z,23.4
2017-08-06T17:30:08.220Z,23.2
2017-08-06T17:35:03.250Z,23.2
2017-08-06T17:40:05.405Z,23
2017-08-06T17:45:03.422Z,23
2017-08-06T17:50:05.303Z,22.9
2017-08-06T17:55:26.433Z,22.8
2017-08-06T18:00:07.726Z,22.7
2017-08-06T18:05:07.967Z,22.6
2017-08-06T18:10:06.161Z,22.6
2017-08-06T18:15:08.858Z,22.4
2017-08-06T18:20:11.145Z,22.3
2017-08-06T18:25:23.673Z,22.2
2017-08-06T18:30:05.486Z,22.1
2017-08-06T18:35:02.855Z,22
2017-08-06T18:40:03.606Z,21.9
2017-08-06T18:45:02.824Z,21.7
2017-08-06T18:50:10.743Z,21.4
2017-08-06T18:55:03.405Z,21.4
2017-08-06T19:00:08.228Z,21
2017-08-06T19:05:08.265Z,21
2017-08-06T19:10:03.202Z,21
2017-08-06T19:15:03.444Z,20.9
2017-08-06T19:20:02.763Z,20.7
2017-08-06T19:25:10.679Z,20.4
2017-08-06T19:30:05.495Z,20.2
2017-08-06T19:35:05.325Z,20.1
2017-08-06T19:40:03.001Z,20
2017-08-06T19:45:08.304Z,19.7
2017-08-06T19:50:03.380Z,19.7
2017-08-06T19:55:07.476Z,19.6
2017-08-06T20:00:08.570Z,19.3
2017-08-06T20:05:07.891Z,19.2
2017-08-06T20:10:08.643Z,19.1
2017-08-06T20:15:05.606Z,19.1
2017-08-06T20:20:02.983Z,19
2017-08-06T20:25:05.163Z,19.1
2017-08-06T20:30:03.560Z,19
2017-08-06T20:35:02.777Z,19
2017-08-06T20:40:02.604Z,18.9
2017-08-06T20:45:05.611Z,18.7
2017-08-06T20:50:10.562Z,18.7
2017-08-06T20:55:05.374Z,18.6
2017-08-06T21:00:02.643Z,18.6
2017-08-06T21:05:25.728Z,18.3
2017-08-06T21:10:13.417Z,18.3
2017-08-06T21:15:05.514Z,18.2
2017-08-06T21:20:02.783Z,18.2
2017-08-06T21:25:03.126Z,18.2
2017-08-06T21:30:05.926Z,18
2017-08-06T21:35:08.112Z,17.9
2017-08-06T21:40:02.722Z,17.9
2017-08-06T21:45:10.398Z,17.8
2017-08-06T21:50:21.120Z,17.6
2017-08-06T21:55:03.543Z,17.6
2017-08-06T22:00:12.896Z,17.5
2017-08-06T22:05:05.660Z,17.4
2017-08-06T22:10:06.106Z,17.3
2017-08-06T22:15:05.734Z,17.3
2017-08-06T22:20:10.368Z,17.2
2017-08-06T22:25:03.449Z,17.2
2017-08-06T22:30:23.145Z,17
2017-08-06T22:35:03.415Z,17.1
2017-08-06T22:40:05.702Z,17
2017-08-06T22:45:02.972Z,16.9
2017-08-06T22:50:05.773Z,16.8
2017-08-06T22:55:12.922Z,16.7
2017-08-06T23:00:02.976Z,16.7
2017-08-06T23:05:08.275Z,16.5
2017-08-06T23:10:10.419Z,16.5
2017-08-06T23:15:05.231Z,16.4
2017-08-06T23:20:11.207Z,16.3
2017-08-06T23:25:11.007Z,16.3
2017-08-06T23:30:02.983Z,16.3
2017-08-06T23:35:05.782Z,16.1
2017-08-06T23:40:03.565Z,16.1
2017-08-06T23:45:05.442Z,15.9
2017-08-06T23:50:02.814Z,15.9
2017-08-06T23:55:13.297Z,15.8
